sensor_id;sensor_type;location;lat;lon;timestamp;P1;durP1;ratioP1;P2;durP2;ratioP2
36247;SDS011;22287;50.824;5.644;2023-03-07T00:01:25;7.75;;;5.30;;
36247;SDS011;22287;50.824;5.644;2023-03-07T00:03:53;8.68;;;5.55;;
36247;SDS011;22287;50.824;5.644;2023-03-07T00:06:21;8.38;;;5.03;;
36247;SDS011;22287;50.824;5.644;2023-03-07T00:08:51;10.45;;;5.28;;
36247;SDS011;22287;50.824;5.644;2023-03-07T00:11:20;7.95;;;5.95;;
36247;SDS011;22287;50.824;5.644;2023-03-07T00:13:47;8.52;;;5.13;;
36247;SDS011;22287;50.824;5.644;2023-03-07T00:16:15;7.63;;;4.80;;
36247;SDS011;22287;50.824;5.644;2023-03-07T00:18:43;8.40;;;5.80;;
36247;SDS011;22287;50.824;5.644;2023-03-07T00:21:11;8.15;;;4.93;;
36247;SDS011;22287;50.824;5.644;2023-03-07T00:23:41;8.68;;;4.70;;
36247;SDS011;22287;50.824;5.644;2023-03-07T00:26:11;9.23;;;5.22;;
36247;SDS011;22287;50.824;5.644;2023-03-07T00:28:41;7.43;;;5.13;;
36247;SDS011;22287;50.824;5.644;2023-03-07T00:31:09;8.43;;;4.97;;
36247;SDS011;22287;50.824;5.644;2023-03-07T00:33:37;9.98;;;5.13;;
36247;SDS011;22287;50.824;5.644;2023-03-07T00:36:05;9.40;;;5.10;;
36247;SDS011;22287;50.824;5.644;2023-03-07T00:38:34;10.95;;;5.40;;
36247;SDS011;22287;50.824;5.644;2023-03-07T00:41:03;8.38;;;5.10;;
36247;SDS011;22287;50.824;5.644;2023-03-07T00:43:30;10.57;;;5.05;;
36247;SDS011;22287;50.824;5.644;2023-03-07T00:45:57;12.35;;;6.22;;
36247;SDS011;22287;50.824;5.644;2023-03-07T00:48:25;8.95;;;4.75;;
36247;SDS011;22287;50.824;5.644;2023-03-07T00:50:53;9.82;;;5.60;;
36247;SDS011;22287;50.824;5.644;2023-03-07T00:53:23;9.65;;;5.40;;
36247;SDS011;22287;50.824;5.644;2023-03-07T00:55:55;11.02;;;5.15;;
36247;SDS011;22287;50.824;5.644;2023-03-07T01:01:00;7.47;;;4.68;;
36247;SDS011;22287;50.824;5.644;2023-03-07T01:03:28;12.20;;;5.90;;
36247;SDS011;22287;50.824;5.644;2023-03-07T01:05:55;7.85;;;4.75;;
36247;SDS011;22287;50.824;5.644;2023-03-07T01:08:22;7.97;;;4.78;;
36247;SDS011;22287;50.824;5.644;2023-03-07T01:10:50;11.00;;;6.13;;
36247;SDS011;22287;50.824;5.644;2023-03-07T01:13:17;11.85;;;6.38;;
36247;SDS011;22287;50.824;5.644;2023-03-07T01:15:44;11.48;;;6.22;;
36247;SDS011;22287;50.824;5.644;2023-03-07T01:18:12;14.15;;;6.90;;
36247;SDS011;22287;50.824;5.644;2023-03-07T01:20:39;10.20;;;6.55;;
36247;SDS011;22287;50.824;5.644;2023-03-07T01:23:07;10.00;;;5.88;;
36247;SDS011;22287;50.824;5.644;2023-03-07T01:25:38;13.00;;;6.43;;
36247;SDS011;22287;50.824;5.644;2023-03-07T01:28:06;12.70;;;6.40;;
36247;SDS011;22287;50.824;5.644;2023-03-07T01:30:38;12.55;;;7.68;;
36247;SDS011;22287;50.824;5.644;2023-03-07T01:33:04;12.60;;;6.57;;
36247;SDS011;22287;50.824;5.644;2023-03-07T01:35:36;11.73;;;6.18;;
36247;SDS011;22287;50.824;5.644;2023-03-07T01:38:04;12.70;;;7.13;;
36247;SDS011;22287;50.824;5.644;2023-03-07T01:40:33;11.13;;;5.80;;
36247;SDS011;22287;50.824;5.644;2023-03-07T01:46:17;11.27;;;6.95;;
36247;SDS011;22287;50.824;5.644;2023-03-07T01:51:35;9.57;;;6.57;;
36247;SDS011;22287;50.824;5.644;2023-03-07T01:54:06;9.55;;;6.00;;
36247;SDS011;22287;50.824;5.644;2023-03-07T01:56:38;12.68;;;7.03;;
36247;SDS011;22287;50.824;5.644;2023-03-07T01:59:06;10.45;;;6.20;;
36247;SDS011;22287;50.824;5.644;2023-03-07T02:01:34;12.55;;;6.50;;
36247;SDS011;22287;50.824;5.644;2023-03-07T02:06:38;11.32;;;6.97;;
36247;SDS011;22287;50.824;5.644;2023-03-07T02:09:08;9.88;;;6.38;;
36247;SDS011;22287;50.824;5.644;2023-03-07T02:11:41;9.52;;;7.05;;
36247;SDS011;22287;50.824;5.644;2023-03-07T02:14:10;11.13;;;6.95;;
36247;SDS011;22287;50.824;5.644;2023-03-07T02:16:37;12.20;;;7.10;;
36247;SDS011;22287;50.824;5.644;2023-03-07T02:19:19;13.00;;;6.97;;
36247;SDS011;22287;50.824;5.644;2023-03-07T02:24:44;12.27;;;6.82;;
36247;SDS011;22287;50.824;5.644;2023-03-07T02:27:18;10.77;;;6.97;;
36247;SDS011;22287;50.824;5.644;2023-03-07T02:29:45;11.32;;;6.72;;
36247;SDS011;22287;50.824;5.644;2023-03-07T02:32:12;14.27;;;6.97;;
36247;SDS011;22287;50.824;5.644;2023-03-07T02:34:39;11.98;;;6.55;;
36247;SDS011;22287;50.824;5.644;2023-03-07T02:37:20;13.02;;;7.22;;
36247;SDS011;22287;50.824;5.644;2023-03-07T02:40:10;11.15;;;6.80;;
36247;SDS011;22287;50.824;5.644;2023-03-07T02:42:40;9.35;;;6.05;;
36247;SDS011;22287;50.824;5.644;2023-03-07T02:45:13;11.07;;;6.75;;
36247;SDS011;22287;50.824;5.644;2023-03-07T02:47:42;11.40;;;7.22;;
36247;SDS011;22287;50.824;5.644;2023-03-07T02:50:13;14.77;;;7.35;;
36247;SDS011;22287;50.824;5.644;2023-03-07T02:52:44;14.77;;;7.53;;
36247;SDS011;22287;50.824;5.644;2023-03-07T02:55:11;9.80;;;6.47;;
36247;SDS011;22287;50.824;5.644;2023-03-07T02:57:44;12.13;;;7.05;;
36247;SDS011;22287;50.824;5.644;2023-03-07T03:00:11;12.45;;;7.50;;
36247;SDS011;22287;50.824;5.644;2023-03-07T03:02:38;12.63;;;7.30;;
36247;SDS011;22287;50.824;5.644;2023-03-07T03:05:06;12.52;;;7.85;;
36247;SDS011;22287;50.824;5.644;2023-03-07T03:07:33;11.13;;;6.43;;
36247;SDS011;22287;50.824;5.644;2023-03-07T03:10:00;12.18;;;7.22;;
36247;SDS011;22287;50.824;5.644;2023-03-07T03:12:30;14.07;;;7.00;;
36247;SDS011;22287;50.824;5.644;2023-03-07T03:14:57;13.57;;;7.57;;
36247;SDS011;22287;50.824;5.644;2023-03-07T03:17:24;12.80;;;7.25;;
36247;SDS011;22287;50.824;5.644;2023-03-07T03:19:51;11.88;;;7.50;;
36247;SDS011;22287;50.824;5.644;2023-03-07T03:22:18;14.68;;;7.53;;
36247;SDS011;22287;50.824;5.644;2023-03-07T03:24:48;12.23;;;7.03;;
36247;SDS011;22287;50.824;5.644;2023-03-07T03:27:17;12.30;;;7.20;;
36247;SDS011;22287;50.824;5.644;2023-03-07T03:29:46;14.07;;;8.13;;
36247;SDS011;22287;50.824;5.644;2023-03-07T03:32:13;13.23;;;8.02;;
36247;SDS011;22287;50.824;5.644;2023-03-07T03:34:41;12.68;;;7.07;;
36247;SDS011;22287;50.824;5.644;2023-03-07T03:37:08;12.20;;;7.50;;
36247;SDS011;22287;50.824;5.644;2023-03-07T03:39:35;12.85;;;7.18;;
36247;SDS011;22287;50.824;5.644;2023-03-07T03:42:03;10.15;;;6.15;;
36247;SDS011;22287;50.824;5.644;2023-03-07T03:44:32;11.35;;;7.00;;
36247;SDS011;22287;50.824;5.644;2023-03-07T03:46:59;11.63;;;6.68;;
36247;SDS011;22287;50.824;5.644;2023-03-07T03:49:27;14.25;;;7.10;;
36247;SDS011;22287;50.824;5.644;2023-03-07T03:51:54;11.48;;;7.38;;
36247;SDS011;22287;50.824;5.644;2023-03-07T03:54:21;12.23;;;6.85;;
36247;SDS011;22287;50.824;5.644;2023-03-07T03:56:48;12.38;;;6.85;;
36247;SDS011;22287;50.824;5.644;2023-03-07T03:59:15;14.07;;;7.65;;
36247;SDS011;22287;50.824;5.644;2023-03-07T04:01:43;11.55;;;6.30;;
36247;SDS011;22287;50.824;5.644;2023-03-07T04:04:10;13.18;;;7.40;;
36247;SDS011;22287;50.824;5.644;2023-03-07T04:06:38;12.00;;;6.43;;
36247;SDS011;22287;50.824;5.644;2023-03-07T04:09:05;12.45;;;6.75;;
36247;SDS011;22287;50.824;5.644;2023-03-07T04:11:34;10.88;;;6.68;;
36247;SDS011;22287;50.824;5.644;2023-03-07T04:14:02;9.90;;;6.68;;
36247;SDS011;22287;50.824;5.644;2023-03-07T04:16:29;13.25;;;7.10;;
36247;SDS011;22287;50.824;5.644;2023-03-07T04:18:57;9.93;;;5.97;;
36247;SDS011;22287;50.824;5.644;2023-03-07T04:21:24;12.43;;;6.90;;
36247;SDS011;22287;50.824;5.644;2023-03-07T04:23:54;13.00;;;6.35;;
36247;SDS011;22287;50.824;5.644;2023-03-07T04:26:25;11.77;;;5.90;;
36247;SDS011;22287;50.824;5.644;2023-03-07T04:28:52;11.02;;;6.63;;
36247;SDS011;22287;50.824;5.644;2023-03-07T04:31:31;10.82;;;6.75;;
36247;SDS011;22287;50.824;5.644;2023-03-07T04:34:00;15.20;;;6.80;;
36247;SDS011;22287;50.824;5.644;2023-03-07T04:36:28;12.02;;;6.03;;
36247;SDS011;22287;50.824;5.644;2023-03-07T04:38:55;12.60;;;7.60;;
36247;SDS011;22287;50.824;5.644;2023-03-07T04:41:22;10.60;;;6.45;;
36247;SDS011;22287;50.824;5.644;2023-03-07T04:44:00;11.45;;;7.68;;
36247;SDS011;22287;50.824;5.644;2023-03-07T04:46:27;13.25;;;7.97;;
36247;SDS011;22287;50.824;5.644;2023-03-07T04:48:54;10.73;;;6.43;;
36247;SDS011;22287;50.824;5.644;2023-03-07T04:51:21;14.98;;;7.32;;
36247;SDS011;22287;50.824;5.644;2023-03-07T04:53:48;11.18;;;6.78;;
36247;SDS011;22287;50.824;5.644;2023-03-07T04:56:16;11.32;;;6.47;;
36247;SDS011;22287;50.824;5.644;2023-03-07T04:58:44;11.23;;;6.68;;
36247;SDS011;22287;50.824;5.644;2023-03-07T05:01:11;11.82;;;6.68;;
36247;SDS011;22287;50.824;5.644;2023-03-07T05:03:39;12.10;;;6.85;;
36247;SDS011;22287;50.824;5.644;2023-03-07T05:06:07;9.45;;;6.43;;
36247;SDS011;22287;50.824;5.644;2023-03-07T05:08:39;14.98;;;6.78;;
36247;SDS011;22287;50.824;5.644;2023-03-07T05:11:05;13.43;;;7.75;;
36247;SDS011;22287;50.824;5.644;2023-03-07T05:13:32;10.70;;;6.40;;
36247;SDS011;22287;50.824;5.644;2023-03-07T05:15:59;14.98;;;6.65;;
36247;SDS011;22287;50.824;5.644;2023-03-07T05:18:28;11.25;;;6.57;;
36247;SDS011;22287;50.824;5.644;2023-03-07T05:20:56;15.20;;;6.97;;
36247;SDS011;22287;50.824;5.644;2023-03-07T05:23:24;17.92;;;6.95;;
36247;SDS011;22287;50.824;5.644;2023-03-07T05:25:52;10.88;;;6.65;;
36247;SDS011;22287;50.824;5.644;2023-03-07T05:28:19;11.70;;;6.70;;
36247;SDS011;22287;50.824;5.644;2023-03-07T05:30:46;13.85;;;7.00;;
36247;SDS011;22287;50.824;5.644;2023-03-07T05:33:13;11.43;;;6.47;;
36247;SDS011;22287;50.824;5.644;2023-03-07T05:35:41;13.23;;;7.22;;
36247;SDS011;22287;50.824;5.644;2023-03-07T05:38:10;14.00;;;6.93;;
36247;SDS011;22287;50.824;5.644;2023-03-07T05:40:37;12.13;;;6.85;;
36247;SDS011;22287;50.824;5.644;2023-03-07T05:43:04;14.70;;;6.90;;
36247;SDS011;22287;50.824;5.644;2023-03-07T05:45:32;12.20;;;6.97;;
36247;SDS011;22287;50.824;5.644;2023-03-07T05:48:00;13.10;;;6.57;;
36247;SDS011;22287;50.824;5.644;2023-03-07T05:50:28;13.68;;;6.95;;
36247;SDS011;22287;50.824;5.644;2023-03-07T05:52:56;13.13;;;7.30;;
36247;SDS011;22287;50.824;5.644;2023-03-07T05:55:26;11.55;;;6.47;;
36247;SDS011;22287;50.824;5.644;2023-03-07T05:57:52;11.10;;;6.57;;
36247;SDS011;22287;50.824;5.644;2023-03-07T06:00:19;12.50;;;6.38;;
36247;SDS011;22287;50.824;5.644;2023-03-07T06:02:52;11.10;;;6.28;;
36247;SDS011;22287;50.824;5.644;2023-03-07T06:05:20;10.45;;;6.68;;
36247;SDS011;22287;50.824;5.644;2023-03-07T06:07:49;12.75;;;6.75;;
36247;SDS011;22287;50.824;5.644;2023-03-07T06:10:16;9.38;;;6.28;;
36247;SDS011;22287;50.824;5.644;2023-03-07T06:12:43;9.63;;;6.13;;
36247;SDS011;22287;50.824;5.644;2023-03-07T06:15:10;12.70;;;6.57;;
36247;SDS011;22287;50.824;5.644;2023-03-07T06:17:36;13.40;;;6.45;;
36247;SDS011;22287;50.824;5.644;2023-03-07T06:20:06;11.05;;;6.45;;
36247;SDS011;22287;50.824;5.644;2023-03-07T06:22:34;15.50;;;7.75;;
36247;SDS011;22287;50.824;5.644;2023-03-07T06:25:04;12.23;;;6.43;;
36247;SDS011;22287;50.824;5.644;2023-03-07T06:27:35;12.18;;;7.18;;
36247;SDS011;22287;50.824;5.644;2023-03-07T06:32:31;10.15;;;6.15;;
36247;SDS011;22287;50.824;5.644;2023-03-07T06:35:00;11.40;;;5.68;;
36247;SDS011;22287;50.824;5.644;2023-03-07T06:37:28;13.00;;;6.70;;
36247;SDS011;22287;50.824;5.644;2023-03-07T06:39:57;12.90;;;6.60;;
36247;SDS011;22287;50.824;5.644;2023-03-07T06:42:25;10.82;;;6.38;;
36247;SDS011;22287;50.824;5.644;2023-03-07T06:44:52;11.10;;;6.40;;
36247;SDS011;22287;50.824;5.644;2023-03-07T06:47:19;12.75;;;5.60;;
36247;SDS011;22287;50.824;5.644;2023-03-07T06:49:46;12.63;;;5.88;;
36247;SDS011;22287;50.824;5.644;2023-03-07T06:52:13;9.05;;;5.55;;
36247;SDS011;22287;50.824;5.644;2023-03-07T06:54:40;10.45;;;6.40;;
36247;SDS011;22287;50.824;5.644;2023-03-07T06:57:07;11.77;;;6.05;;
36247;SDS011;22287;50.824;5.644;2023-03-07T06:59:33;11.80;;;6.65;;
36247;SDS011;22287;50.824;5.644;2023-03-07T07:02:01;12.00;;;6.32;;
36247;SDS011;22287;50.824;5.644;2023-03-07T07:04:29;13.32;;;6.00;;
36247;SDS011;22287;50.824;5.644;2023-03-07T07:06:56;12.57;;;6.85;;
36247;SDS011;22287;50.824;5.644;2023-03-07T07:09:24;9.82;;;5.43;;
36247;SDS011;22287;50.824;5.644;2023-03-07T07:11:51;9.18;;;5.25;;
36247;SDS011;22287;50.824;5.644;2023-03-07T07:14:18;9.95;;;5.45;;
36247;SDS011;22287;50.824;5.644;2023-03-07T07:16:45;13.52;;;6.43;;
36247;SDS011;22287;50.824;5.644;2023-03-07T07:19:11;10.48;;;5.80;;
36247;SDS011;22287;50.824;5.644;2023-03-07T07:21:39;12.48;;;6.25;;
36247;SDS011;22287;50.824;5.644;2023-03-07T07:24:06;11.10;;;6.15;;
36247;SDS011;22287;50.824;5.644;2023-03-07T07:26:37;9.38;;;6.07;;
36247;SDS011;22287;50.824;5.644;2023-03-07T07:29:04;8.68;;;5.60;;
36247;SDS011;22287;50.824;5.644;2023-03-07T07:31:31;11.85;;;6.45;;
36247;SDS011;22287;50.824;5.644;2023-03-07T07:33:58;10.35;;;6.18;;
36247;SDS011;22287;50.824;5.644;2023-03-07T07:36:28;11.13;;;5.30;;
36247;SDS011;22287;50.824;5.644;2023-03-07T07:38:56;11.65;;;5.88;;
36247;SDS011;22287;50.824;5.644;2023-03-07T07:41:23;10.73;;;6.22;;
36247;SDS011;22287;50.824;5.644;2023-03-07T07:43:53;10.07;;;6.38;;
36247;SDS011;22287;50.824;5.644;2023-03-07T07:46:33;11.35;;;6.22;;
36247;SDS011;22287;50.824;5.644;2023-03-07T07:49:01;12.45;;;6.47;;
36247;SDS011;22287;50.824;5.644;2023-03-07T07:51:28;12.23;;;6.82;;
36247;SDS011;22287;50.824;5.644;2023-03-07T07:53:55;10.70;;;7.13;;
36247;SDS011;22287;50.824;5.644;2023-03-07T07:56:23;12.38;;;6.50;;
36247;SDS011;22287;50.824;5.644;2023-03-07T07:58:50;11.70;;;6.95;;
36247;SDS011;22287;50.824;5.644;2023-03-07T08:01:21;11.98;;;6.78;;
36247;SDS011;22287;50.824;5.644;2023-03-07T08:03:50;10.45;;;6.68;;
36247;SDS011;22287;50.824;5.644;2023-03-07T08:06:20;15.73;;;7.88;;
36247;SDS011;22287;50.824;5.644;2023-03-07T08:08:49;12.55;;;6.22;;
36247;SDS011;22287;50.824;5.644;2023-03-07T08:11:17;12.63;;;6.88;;
36247;SDS011;22287;50.824;5.644;2023-03-07T08:13:45;13.73;;;6.50;;
36247;SDS011;22287;50.824;5.644;2023-03-07T08:16:13;10.98;;;6.35;;
36247;SDS011;22287;50.824;5.644;2023-03-07T08:18:41;10.80;;;6.75;;
36247;SDS011;22287;50.824;5.644;2023-03-07T08:21:13;10.77;;;6.13;;
36247;SDS011;22287;50.824;5.644;2023-03-07T08:23:40;10.60;;;6.60;;
36247;SDS011;22287;50.824;5.644;2023-03-07T08:26:07;12.77;;;7.07;;
36247;SDS011;22287;50.824;5.644;2023-03-07T08:28:36;11.57;;;6.03;;
36247;SDS011;22287;50.824;5.644;2023-03-07T08:31:06;14.18;;;7.90;;
36247;SDS011;22287;50.824;5.644;2023-03-07T08:33:35;11.13;;;6.50;;
36247;SDS011;22287;50.824;5.644;2023-03-07T08:36:03;15.57;;;7.60;;
36247;SDS011;22287;50.824;5.644;2023-03-07T08:38:30;14.82;;;7.05;;
36247;SDS011;22287;50.824;5.644;2023-03-07T08:40:58;13.95;;;7.68;;
36247;SDS011;22287;50.824;5.644;2023-03-07T08:43:30;11.75;;;6.28;;
36247;SDS011;22287;50.824;5.644;2023-03-07T08:45:58;11.68;;;6.80;;
36247;SDS011;22287;50.824;5.644;2023-03-07T08:48:25;16.98;;;7.65;;
36247;SDS011;22287;50.824;5.644;2023-03-07T08:50:52;13.85;;;6.55;;
36247;SDS011;22287;50.824;5.644;2023-03-07T08:53:20;11.32;;;7.10;;
36247;SDS011;22287;50.824;5.644;2023-03-07T08:55:48;15.43;;;7.28;;
36247;SDS011;22287;50.824;5.644;2023-03-07T08:58:15;12.43;;;7.30;;
36247;SDS011;22287;50.824;5.644;2023-03-07T09:00:42;14.88;;;7.95;;
36247;SDS011;22287;50.824;5.644;2023-03-07T09:03:09;16.35;;;7.55;;
36247;SDS011;22287;50.824;5.644;2023-03-07T09:05:36;13.55;;;7.25;;
36247;SDS011;22287;50.824;5.644;2023-03-07T09:08:06;23.77;;;8.35;;
36247;SDS011;22287;50.824;5.644;2023-03-07T09:10:34;14.18;;;8.27;;
36247;SDS011;22287;50.824;5.644;2023-03-07T09:13:01;14.38;;;7.32;;
36247;SDS011;22287;50.824;5.644;2023-03-07T09:15:28;12.52;;;7.03;;
36247;SDS011;22287;50.824;5.644;2023-03-07T09:17:54;12.82;;;6.90;;
36247;SDS011;22287;50.824;5.644;2023-03-07T09:20:21;14.88;;;6.82;;
36247;SDS011;22287;50.824;5.644;2023-03-07T09:22:49;11.93;;;6.88;;
36247;SDS011;22287;50.824;5.644;2023-03-07T09:25:17;12.80;;;6.35;;
36247;SDS011;22287;50.824;5.644;2023-03-07T09:27:44;12.63;;;6.43;;
36247;SDS011;22287;50.824;5.644;2023-03-07T09:30:11;12.65;;;6.97;;
36247;SDS011;22287;50.824;5.644;2023-03-07T09:32:39;14.43;;;7.10;;
36247;SDS011;22287;50.824;5.644;2023-03-07T09:35:06;12.90;;;7.07;;
36247;SDS011;22287;50.824;5.644;2023-03-07T09:37:33;15.05;;;7.60;;
36247;SDS011;22287;50.824;5.644;2023-03-07T09:40:00;14.23;;;6.85;;
36247;SDS011;22287;50.824;5.644;2023-03-07T09:42:53;13.05;;;6.72;;
36247;SDS011;22287;50.824;5.644;2023-03-07T09:51:08;14.57;;;7.97;;
36247;SDS011;22287;50.824;5.644;2023-03-07T09:53:42;12.50;;;7.63;;
36247;SDS011;22287;50.824;5.644;2023-03-07T09:56:26;14.55;;;7.65;;
36247;SDS011;22287;50.824;5.644;2023-03-07T10:01:50;13.35;;;7.95;;
36247;SDS011;22287;50.824;5.644;2023-03-07T10:04:26;15.55;;;7.72;;
36247;SDS011;22287;50.824;5.644;2023-03-07T10:07:00;14.40;;;7.75;;
36247;SDS011;22287;50.824;5.644;2023-03-07T10:09:29;14.07;;;7.47;;
36247;SDS011;22287;50.824;5.644;2023-03-07T10:25:51;14.85;;;7.22;;
36247;SDS011;22287;50.824;5.644;2023-03-07T10:28:24;14.00;;;8.02;;
36247;SDS011;22287;50.824;5.644;2023-03-07T10:30:56;12.35;;;7.60;;
36247;SDS011;22287;50.824;5.644;2023-03-07T10:33:25;13.80;;;7.97;;
36247;SDS011;22287;50.824;5.644;2023-03-07T10:35:57;13.88;;;8.13;;
36247;SDS011;22287;50.824;5.644;2023-03-07T10:42:00;14.10;;;8.00;;
36247;SDS011;22287;50.824;5.644;2023-03-07T10:44:27;18.30;;;9.05;;
36247;SDS011;22287;50.824;5.644;2023-03-07T10:46:59;15.60;;;8.68;;
36247;SDS011;22287;50.824;5.644;2023-03-07T10:49:28;12.02;;;8.18;;
36247;SDS011;22287;50.824;5.644;2023-03-07T10:54:52;12.55;;;8.10;;
36247;SDS011;22287;50.824;5.644;2023-03-07T10:57:25;14.32;;;9.15;;
36247;SDS011;22287;50.824;5.644;2023-03-07T10:59:53;13.82;;;8.73;;
36247;SDS011;22287;50.824;5.644;2023-03-07T11:04:46;17.63;;;8.93;;
36247;SDS011;22287;50.824;5.644;2023-03-07T11:07:24;16.88;;;9.02;;
36247;SDS011;22287;50.824;5.644;2023-03-07T11:10:24;15.18;;;9.43;;
36247;SDS011;22287;50.824;5.644;2023-03-07T11:13:13;17.05;;;9.68;;
36247;SDS011;22287;50.824;5.644;2023-03-07T11:15:44;19.48;;;9.80;;
36247;SDS011;22287;50.824;5.644;2023-03-07T11:18:28;17.05;;;9.48;;
36247;SDS011;22287;50.824;5.644;2023-03-07T11:20:57;15.50;;;9.30;;
36247;SDS011;22287;50.824;5.644;2023-03-07T11:23:25;16.27;;;8.73;;
36247;SDS011;22287;50.824;5.644;2023-03-07T11:26:14;18.30;;;9.48;;
36247;SDS011;22287;50.824;5.644;2023-03-07T11:28:46;15.43;;;9.32;;
36247;SDS011;22287;50.824;5.644;2023-03-07T11:31:21;18.95;;;10.10;;
36247;SDS011;22287;50.824;5.644;2023-03-07T11:37:07;16.15;;;9.10;;
36247;SDS011;22287;50.824;5.644;2023-03-07T11:42:39;15.57;;;9.07;;
36247;SDS011;22287;50.824;5.644;2023-03-07T11:47:51;15.68;;;8.82;;
36247;SDS011;22287;50.824;5.644;2023-03-07T11:50:22;17.97;;;9.70;;
36247;SDS011;22287;50.824;5.644;2023-03-07T12:02:04;17.30;;;9.43;;
36247;SDS011;22287;50.824;5.644;2023-03-07T12:04:56;16.65;;;10.65;;
36247;SDS011;22287;50.824;5.644;2023-03-07T12:11:17;18.70;;;9.80;;
36247;SDS011;22287;50.824;5.644;2023-03-07T12:19:42;16.33;;;9.25;;
36247;SDS011;22287;50.824;5.644;2023-03-07T12:22:27;13.43;;;8.23;;
36247;SDS011;22287;50.824;5.644;2023-03-07T12:28:02;16.83;;;9.18;;
36247;SDS011;22287;50.824;5.644;2023-03-07T12:33:25;15.10;;;8.13;;
36247;SDS011;22287;50.824;5.644;2023-03-07T12:36:00;14.27;;;8.60;;
36247;SDS011;22287;50.824;5.644;2023-03-07T12:38:36;14.27;;;8.52;;
36247;SDS011;22287;50.824;5.644;2023-03-07T12:41:12;15.95;;;8.40;;
36247;SDS011;22287;50.824;5.644;2023-03-07T12:44:06;15.57;;;8.30;;
36247;SDS011;22287;50.824;5.644;2023-03-07T12:46:49;13.95;;;8.50;;
36247;SDS011;22287;50.824;5.644;2023-03-07T12:49:23;12.50;;;7.95;;
36247;SDS011;22287;50.824;5.644;2023-03-07T12:52:01;12.85;;;7.43;;
36247;SDS011;22287;50.824;5.644;2023-03-07T12:54:33;12.80;;;7.50;;
36247;SDS011;22287;50.824;5.644;2023-03-07T12:59:57;14.23;;;8.43;;
36247;SDS011;22287;50.824;5.644;2023-03-07T13:02:29;13.20;;;7.57;;
36247;SDS011;22287;50.824;5.644;2023-03-07T13:05:00;10.68;;;7.13;;
36247;SDS011;22287;50.824;5.644;2023-03-07T13:07:30;10.02;;;6.72;;
36247;SDS011;22287;50.824;5.644;2023-03-07T13:09:59;9.63;;;5.85;;
36247;SDS011;22287;50.824;5.644;2023-03-07T13:12:32;8.32;;;4.60;;
36247;SDS011;22287;50.824;5.644;2023-03-07T13:15:03;6.28;;;4.25;;
36247;SDS011;22287;50.824;5.644;2023-03-07T13:20:01;6.00;;;4.00;;
36247;SDS011;22287;50.824;5.644;2023-03-07T13:27:53;4.80;;;2.65;;
36247;SDS011;22287;50.824;5.644;2023-03-07T13:30:20;4.03;;;2.10;;
36247;SDS011;22287;50.824;5.644;2023-03-07T13:40:58;2.70;;;1.73;;
36247;SDS011;22287;50.824;5.644;2023-03-07T13:45:54;4.18;;;1.75;;
36247;SDS011;22287;50.824;5.644;2023-03-07T13:58:33;2.30;;;1.17;;
36247;SDS011;22287;50.824;5.644;2023-03-07T14:01:15;2.17;;;1.40;;
36247;SDS011;22287;50.824;5.644;2023-03-07T14:03:46;2.53;;;1.42;;
36247;SDS011;22287;50.824;5.644;2023-03-07T14:06:20;1.40;;;1.23;;
36247;SDS011;22287;50.824;5.644;2023-03-07T14:08:52;1.23;;;0.98;;
36247;SDS011;22287;50.824;5.644;2023-03-07T14:11:40;1.58;;;1.00;;
36247;SDS011;22287;50.824;5.644;2023-03-07T14:22:47;2.90;;;1.63;;
36247;SDS011;22287;50.824;5.644;2023-03-07T14:25:24;2.67;;;1.80;;
36247;SDS011;22287;50.824;5.644;2023-03-07T14:30:27;3.22;;;2.28;;
36247;SDS011;22287;50.824;5.644;2023-03-07T14:32:57;3.20;;;2.17;;
36247;SDS011;22287;50.824;5.644;2023-03-07T14:35:32;3.00;;;2.08;;
36247;SDS011;22287;50.824;5.644;2023-03-07T14:38:07;4.18;;;2.65;;
36247;SDS011;22287;50.824;5.644;2023-03-07T14:49:09;7.28;;;3.75;;
36247;SDS011;22287;50.824;5.644;2023-03-07T14:52:03;6.18;;;3.47;;
36247;SDS011;22287;50.824;5.644;2023-03-07T14:54:30;7.15;;;3.30;;
36247;SDS011;22287;50.824;5.644;2023-03-07T14:56:59;5.72;;;3.25;;
36247;SDS011;22287;50.824;5.644;2023-03-07T14:59:27;5.75;;;3.65;;
36247;SDS011;22287;50.824;5.644;2023-03-07T15:01:55;6.68;;;3.75;;
36247;SDS011;22287;50.824;5.644;2023-03-07T15:04:30;5.72;;;3.60;;
36247;SDS011;22287;50.824;5.644;2023-03-07T15:06:59;6.93;;;3.65;;
36247;SDS011;22287;50.824;5.644;2023-03-07T15:09:30;6.70;;;3.75;;
36247;SDS011;22287;50.824;5.644;2023-03-07T15:12:13;5.72;;;3.70;;
36247;SDS011;22287;50.824;5.644;2023-03-07T15:14:49;6.15;;;3.40;;
36247;SDS011;22287;50.824;5.644;2023-03-07T15:17:27;7.03;;;3.80;;
36247;SDS011;22287;50.824;5.644;2023-03-07T15:20:01;6.10;;;3.78;;
36247;SDS011;22287;50.824;5.644;2023-03-07T15:22:35;5.88;;;3.50;;
36247;SDS011;22287;50.824;5.644;2023-03-07T15:25:06;4.50;;;3.25;;
36247;SDS011;22287;50.824;5.644;2023-03-07T15:28:00;5.75;;;3.72;;
36247;SDS011;22287;50.824;5.644;2023-03-07T15:30:31;7.10;;;3.67;;
36247;SDS011;22287;50.824;5.644;2023-03-07T15:38:37;4.63;;;3.03;;
36247;SDS011;22287;50.824;5.644;2023-03-07T15:46:42;4.28;;;3.00;;
36247;SDS011;22287;50.824;5.644;2023-03-07T15:49:25;5.32;;;2.95;;
36247;SDS011;22287;50.824;5.644;2023-03-07T15:51:54;6.88;;;2.92;;
36247;SDS011;22287;50.824;5.644;2023-03-07T16:00:19;5.70;;;3.50;;
36247;SDS011;22287;50.824;5.644;2023-03-07T16:03:26;5.45;;;3.47;;
36247;SDS011;22287;50.824;5.644;2023-03-07T16:05:57;6.32;;;3.90;;
36247;SDS011;22287;50.824;5.644;2023-03-07T16:08:26;5.78;;;3.47;;
36247;SDS011;22287;50.824;5.644;2023-03-07T16:11:00;5.13;;;2.90;;
36247;SDS011;22287;50.824;5.644;2023-03-07T16:13:35;5.18;;;3.05;;
36247;SDS011;22287;50.824;5.644;2023-03-07T16:18:39;6.47;;;3.53;;
36247;SDS011;22287;50.824;5.644;2023-03-07T16:21:11;6.65;;;3.70;;
36247;SDS011;22287;50.824;5.644;2023-03-07T16:23:39;5.90;;;3.45;;
36247;SDS011;22287;50.824;5.644;2023-03-07T16:26:09;7.00;;;3.85;;
36247;SDS011;22287;50.824;5.644;2023-03-07T16:28:40;7.00;;;4.22;;
36247;SDS011;22287;50.824;5.644;2023-03-07T16:31:39;6.28;;;4.10;;
36247;SDS011;22287;50.824;5.644;2023-03-07T16:34:16;8.93;;;4.20;;
36247;SDS011;22287;50.824;5.644;2023-03-07T16:36:59;6.45;;;4.00;;
36247;SDS011;22287;50.824;5.644;2023-03-07T16:39:26;7.30;;;4.53;;
36247;SDS011;22287;50.824;5.644;2023-03-07T16:41:53;7.13;;;4.55;;
36247;SDS011;22287;50.824;5.644;2023-03-07T16:44:20;8.65;;;4.85;;
36247;SDS011;22287;50.824;5.644;2023-03-07T16:46:54;8.88;;;5.10;;
36247;SDS011;22287;50.824;5.644;2023-03-07T16:49:22;7.75;;;4.53;;
36247;SDS011;22287;50.824;5.644;2023-03-07T16:51:49;8.13;;;4.97;;
36247;SDS011;22287;50.824;5.644;2023-03-07T16:54:30;9.15;;;5.50;;
36247;SDS011;22287;50.824;5.644;2023-03-07T16:56:57;8.40;;;4.82;;
36247;SDS011;22287;50.824;5.644;2023-03-07T16:59:26;8.80;;;5.65;;
36247;SDS011;22287;50.824;5.644;2023-03-07T17:02:00;7.78;;;4.80;;
36247;SDS011;22287;50.824;5.644;2023-03-07T17:04:27;7.03;;;4.15;;
36247;SDS011;22287;50.824;5.644;2023-03-07T17:06:54;7.03;;;4.68;;
36247;SDS011;22287;50.824;5.644;2023-03-07T17:09:29;9.35;;;5.20;;
36247;SDS011;22287;50.824;5.644;2023-03-07T17:11:56;7.38;;;4.30;;
36247;SDS011;22287;50.824;5.644;2023-03-07T17:14:23;4.63;;;2.60;;
36247;SDS011;22287;50.824;5.644;2023-03-07T17:16:50;4.82;;;2.55;;
36247;SDS011;22287;50.824;5.644;2023-03-07T17:19:22;2.97;;;2.22;;
36247;SDS011;22287;50.824;5.644;2023-03-07T17:21:54;4.88;;;3.10;;
36247;SDS011;22287;50.824;5.644;2023-03-07T17:24:24;4.68;;;3.13;;
36247;SDS011;22287;50.824;5.644;2023-03-07T17:26:51;5.22;;;3.40;;
36247;SDS011;22287;50.824;5.644;2023-03-07T17:31:49;6.50;;;4.20;;